Home > Products > Valid Products > TAF

000
FTUS45 KGJT 211730
TAFGJT
TAF
KGJT 211730Z 2118/2218 12012KT P6SM SCT100 BKN150
     FM212000 27010KT P6SM VCTS SCT070CB SCT120
     FM220100 14012G25KT P6SM VCTS SCT050CB BKN100
     FM220600 08011KT P6SM VCSH SCT040 BKN080
     FM221200 11008KT P6SM BKN200=



000
FTUS45 KGJT 211730
TAFGJT
TAF
KGJT 211730Z 2118/2218 12012KT P6SM SCT100 BKN150
     FM212000 27010KT P6SM VCTS SCT070CB SCT120
     FM220100 14012G25KT P6SM VCTS SCT050CB BKN100
     FM220600 08011KT P6SM VCSH SCT040 BKN080
     FM221200 11008KT P6SM BKN200=



000
FTUS45 KGJT 211543 AAB
TAFGJT
TAF AMD
KGJT 211543Z 2116/2212 17010KT P6SM SCT100 BKN150
      TEMPO 2116/2118 2SM +RA BR FEW070 OVC090
     FM212000 27010KT P6SM VCTS SCT070CB SCT120
     FM220100 14012KT P6SM VCTS SCT050CB BKN080
     FM220600 08011KT P6SM VCSH SCT040 BKN080=



000
FTUS45 KGJT 211543 AAB
TAFGJT
TAF AMD
KGJT 211543Z 2116/2212 17010KT P6SM SCT100 BKN150
      TEMPO 2116/2118 2SM +RA BR FEW070 OVC090
     FM212000 27010KT P6SM VCTS SCT070CB SCT120
     FM220100 14012KT P6SM VCTS SCT050CB BKN080
     FM220600 08011KT P6SM VCSH SCT040 BKN080=



000
FTUS45 KGJT 211200 AAB
TAFGJT
TAF AMD
KGJT 211200Z 2112/2212 12010KT P6SM VCSH SCT070 BKN100
      TEMPO 2112/2116 VRB15G30KT -SHRA BKN070
     FM211600 17010KT P6SM SCT100 BKN150
     FM212000 27010KT P6SM VCTS SCT070CB SCT120
     FM220100 14012KT P6SM VCTS SCT050CB BKN080
     FM220600 08011KT P6SM VCSH SCT040 BKN080=



000
FTUS45 KGJT 211200 AAB
TAFGJT
TAF AMD
KGJT 211200Z 2112/2212 12010KT P6SM VCSH SCT070 BKN100
      TEMPO 2112/2116 VRB15G30KT -SHRA BKN070
     FM211600 17010KT P6SM SCT100 BKN150
     FM212000 27010KT P6SM VCTS SCT070CB SCT120
     FM220100 14012KT P6SM VCTS SCT050CB BKN080
     FM220600 08011KT P6SM VCSH SCT040 BKN080=



000
FTUS45 KGJT 211124
TAFGJT
TAF
KGJT 211124Z 2112/2212 12010KT P6SM VCSH SCT070 BKN100
      TEMPO 2113/2116 VRB15G30KT -SHRA BKN070
     FM211600 17010KT P6SM SCT100 BKN150
     FM212000 27010KT P6SM VCTS SCT070CB SCT120
     FM220100 14012KT P6SM VCTS SCT050CB BKN080
     FM220600 08011KT P6SM VCSH SCT040 BKN080=



000
FTUS45 KGJT 211124
TAFGJT
TAF
KGJT 211124Z 2112/2212 12010KT P6SM VCSH SCT070 BKN100
      TEMPO 2113/2116 VRB15G30KT -SHRA BKN070
     FM211600 17010KT P6SM SCT100 BKN150
     FM212000 27010KT P6SM VCTS SCT070CB SCT120
     FM220100 14012KT P6SM VCTS SCT050CB BKN080
     FM220600 08011KT P6SM VCSH SCT040 BKN080=



000
FTUS45 KGJT 210520
TAFGJT
TAF
KGJT 210520Z 2106/2206 11009KT P6SM SCT070 BKN120
     FM211200 13012KT P6SM VCSH SCT050 BKN080
     FM211700 17010KT P6SM SCT110 SCT180
     FM220100 14012KT P6SM VCSH SCT050 BKN080=



000
FTUS45 KGJT 210201 AAB
TAFGJT
TAF AMD
KGJT 210201Z 2102/2124 05012KT P6SM FEW120 SCT180
     FM210600 11009KT P6SM SCT070 BKN120
     FM211200 13012KT P6SM VCSH SCT050 BKN080
     FM211700 17010KT P6SM SCT110 SCT180=



000
FTUS45 KGJT 210201 AAB
TAFGJT
TAF AMD
KGJT 210201Z 2102/2124 05012KT P6SM FEW120 SCT180
     FM210600 11009KT P6SM SCT070 BKN120
     FM211200 13012KT P6SM VCSH SCT050 BKN080
     FM211700 17010KT P6SM SCT110 SCT180=



000
FTUS45 KGJT 202325
TAFGJT
TAF
KGJT 202325Z 2100/2124 27009KT P6SM FEW090 SCT140
     FM210200 05005KT P6SM FEW110 SCT250
     FM210600 11009KT P6SM SCT070 BKN120
     FM211200 13012KT P6SM VCSH SCT050 BKN080
     FM211700 17010KT P6SM SCT110 SCT180=



000
FTUS45 KGJT 202325
TAFGJT
TAF
KGJT 202325Z 2100/2124 27009KT P6SM FEW090 SCT140
     FM210200 05005KT P6SM FEW110 SCT250
     FM210600 11009KT P6SM SCT070 BKN120
     FM211200 13012KT P6SM VCSH SCT050 BKN080
     FM211700 17010KT P6SM SCT110 SCT180=



000
FTUS45 KGJT 201734
TAFGJT
TAF
KGJT 201734Z 2018/2118 18005KT P6SM SKC
     FM202000 26008KT P6SM FEW110 SCT250
     FM210200 05005KT P6SM FEW110 SCT250
     FM210600 11009KT P6SM SCT070 BKN120
     FM211400 13012KT P6SM VCSH SCT050 BKN080=



000
FTUS45 KGJT 201734
TAFGJT
TAF
KGJT 201734Z 2018/2118 18005KT P6SM SKC
     FM202000 26008KT P6SM FEW110 SCT250
     FM210200 05005KT P6SM FEW110 SCT250
     FM210600 11009KT P6SM SCT070 BKN120
     FM211400 13012KT P6SM VCSH SCT050 BKN080=



000
FTUS45 KGJT 201120
TAFGJT
TAF
KGJT 201120Z 2012/2112 11005KT P6SM SKC
     FM202000 26008KT P6SM FEW110 SCT250
     FM210200 05005KT P6SM FEW110 SCT250
     FM210600 11012KT P6SM SCT110 BKN200=



000
FTUS45 KGJT 201120
TAFGJT
TAF
KGJT 201120Z 2012/2112 11005KT P6SM SKC
     FM202000 26008KT P6SM FEW110 SCT250
     FM210200 05005KT P6SM FEW110 SCT250
     FM210600 11012KT P6SM SCT110 BKN200=



000
FTUS45 KGJT 200528
TAFGJT
TAF
KGJT 200528Z 2006/2106 04005KT P6SM FEW150
     FM200900 12008KT P6SM SKC
     FM202000 26008KT P6SM FEW110 SCT250
     FM210200 05005KT P6SM FEW110=



000
FTUS45 KGJT 200528
TAFGJT
TAF
KGJT 200528Z 2006/2106 04005KT P6SM FEW150
     FM200900 12008KT P6SM SKC
     FM202000 26008KT P6SM FEW110 SCT250
     FM210200 05005KT P6SM FEW110=



000
FTUS45 KGJT 192330
TAFGJT
TAF
KGJT 192330Z 2000/2024 30007KT P6SM FEW150
     FM200200 04005KT P6SM FEW150
     FM200400 08006KT P6SM SKC
     FM200900 12008KT P6SM SKC
     FM202000 26008KT P6SM FEW110 SCT250=



000
FTUS45 KGJT 192330
TAFGJT
TAF
KGJT 192330Z 2000/2024 30007KT P6SM FEW150
     FM200200 04005KT P6SM FEW150
     FM200400 08006KT P6SM SKC
     FM200900 12008KT P6SM SKC
     FM202000 26008KT P6SM FEW110 SCT250=



000
FTUS45 KGJT 191734
TAFGJT
TAF
KGJT 191734Z 1918/2018 19006KT P6SM FEW110 FEW200
     FM192000 30007KT P6SM FEW110 SCT200
     FM200200 04005KT P6SM FEW150
     FM200700 11007KT P6SM FEW150
     FM201400 13010KT P6SM FEW150 SCT250=



000
FTUS45 KGJT 191734
TAFGJT
TAF
KGJT 191734Z 1918/2018 19006KT P6SM FEW110 FEW200
     FM192000 30007KT P6SM FEW110 SCT200
     FM200200 04005KT P6SM FEW150
     FM200700 11007KT P6SM FEW150
     FM201400 13010KT P6SM FEW150 SCT250=



000
FTUS45 KGJT 191128
TAFGJT
TAF
KGJT 191128Z 1912/2012 12006KT P6SM SCT200
     FM192000 30007KT P6SM FEW110 SCT200
     FM200200 02006KT P6SM FEW150 SCT250=



000
FTUS45 KGJT 191128
TAFGJT
TAF
KGJT 191128Z 1912/2012 12006KT P6SM SCT200
     FM192000 30007KT P6SM FEW110 SCT200
     FM200200 02006KT P6SM FEW150 SCT250=



000
FTUS45 KGJT 190534
TAFGJT
TAF
KGJT 190534Z 1906/2006 10006KT P6SM SKC
     FM192000 30007KT P6SM FEW110 SCT200
     FM200200 02006KT P6SM FEW150 SCT250=



000
FTUS45 KGJT 190534
TAFGJT
TAF
KGJT 190534Z 1906/2006 10006KT P6SM SKC
     FM192000 30007KT P6SM FEW110 SCT200
     FM200200 02006KT P6SM FEW150 SCT250=



000
FTUS45 KGJT 182339
TAFGJT
TAF
KGJT 182339Z 1900/1924 29007KT P6SM FEW110
     FM190300 10008KT P6SM SKC
     FM192000 30007KT P6SM FEW110 SCT200=



000
FTUS45 KGJT 182339
TAFGJT
TAF
KGJT 182339Z 1900/1924 29007KT P6SM FEW110
     FM190300 10008KT P6SM SKC
     FM192000 30007KT P6SM FEW110 SCT200=



    US Dept of Commerce
    National Oceanic and Atmospheric Administration
    National Weather Service
    1325 East West Highway
    Silver Spring, MD 20910
    Page Author: NWS Internet Services Team
Disclaimer
Information Quality
Credits
Glossary
Privacy Policy
Freedom of Information Act (FOIA)
About Us
Career Opportunities